This is the latest recevied weather packets stored in our database for station/object SK4BW-10. If no packets are shown the sender has not sent any weather packets the latest 10 day(s).
| Time | Temp. | Humidity | Pressure | Rain* | Wind** | Luminosity | Snow |
|---|---|---|---|---|---|---|---|
| 1777808436 | 4.44° C | 69% | 1009.8 hPa | - | - | - | - |
| 1777807535 | 4.44° C | 67% | 1009.9 hPa | - | - | - | - |
| 1777806634 | 4.44° C | 65% | 1010 hPa | - | - | - | - |
| 1777805733 | 3.89° C | 70% | 1010.1 hPa | - | - | - | - |
| 1777804832 | 3.89° C | 67% | 1010.1 hPa | - | - | - | - |
| 1777803932 | 3.89° C | 69% | 1010.2 hPa | - | - | - | - |
| 1777803032 | 4.44° C | 67% | 1010.1 hPa | - | - | - | - |
| 1777802131 | 4.44° C | 64% | 1010.2 hPa | - | - | - | - |
| 1777801231 | 3.89° C | 67% | 1010.3 hPa | - | - | - | - |
| 1777800329 | 3.33° C | 71% | 1010.3 hPa | - | - | - | - |
| 1777799427 | 3.33° C | 72% | 1010.3 hPa | - | - | - | - |
| 1777798526 | 3.33° C | 73% | 1010.1 hPa | - | - | - | - |
| 1777797626 | 3.33° C | 71% | 1010.2 hPa | - | - | - | - |
| 1777796725 | 2.78° C | 75% | 1010.4 hPa | - | - | - | - |
| 1777795823 | 3.89° C | 67% | 1010.1 hPa | - | - | - | - |
| 1777794923 | 3.89° C | 68% | 1010 hPa | - | - | - | - |
| 1777794022 | 3.33° C | 71% | 1010 hPa | - | - | - | - |
| 1777793122 | 4.44° C | 67% | 1010 hPa | - | - | - | - |
| 1777792221 | 3.33° C | 71% | 1010 hPa | - | - | - | - |
| 1777791321 | 4.44° C | 63% | 1009.7 hPa | - | - | - | - |
| 1777790420 | 5.56° C | 58% | 1009.8 hPa | - | - | - | - |
| 1777789519 | 3.89° C | 69% | 1009.6 hPa | - | - | - | - |
| 1777788619 | 4.44° C | 66% | 1009.7 hPa | - | - | - | - |
| 1777787718 | 3.33° C | 72% | 1009.8 hPa | - | - | - | - |
| 1777786818 | 3.33° C | 74% | 1009.6 hPa | - | - | - | - |
* Rain since midnight (hover to see other rain measurements)
** Current wind speed in m/s (hover to see current wind gust speed)